sensor_id;sensor_type;location;lat;lon;timestamp;P1;durP1;ratioP1;P2;durP2;ratioP2
55835;SDS011;66908;50.988;4.780;2023-02-28T00:01:14;9.97;;;6.97;;
55835;SDS011;66908;50.988;4.780;2023-02-28T00:03:40;14.25;;;8.30;;
55835;SDS011;66908;50.988;4.780;2023-02-28T00:06:07;9.43;;;7.57;;
55835;SDS011;66908;50.988;4.780;2023-02-28T00:11:01;13.75;;;7.55;;
55835;SDS011;66908;50.988;4.780;2023-02-28T00:13:28;11.38;;;7.75;;
55835;SDS011;66908;50.988;4.780;2023-02-28T00:16:01;9.63;;;7.05;;
55835;SDS011;66908;50.988;4.780;2023-02-28T00:18:28;10.00;;;7.15;;
55835;SDS011;66908;50.988;4.780;2023-02-28T00:20:54;14.27;;;8.05;;
55835;SDS011;66908;50.988;4.780;2023-02-28T00:23:20;9.27;;;7.40;;
55835;SDS011;66908;50.988;4.780;2023-02-28T00:25:46;8.52;;;7.68;;
55835;SDS011;66908;50.988;4.780;2023-02-28T00:28:12;8.10;;;6.78;;
55835;SDS011;66908;50.988;4.780;2023-02-28T00:30:38;10.55;;;7.55;;
55835;SDS011;66908;50.988;4.780;2023-02-28T00:33:04;9.75;;;7.30;;
55835;SDS011;66908;50.988;4.780;2023-02-28T00:35:30;13.50;;;9.20;;
55835;SDS011;66908;50.988;4.780;2023-02-28T00:37:56;8.80;;;7.30;;
55835;SDS011;66908;50.988;4.780;2023-02-28T00:40:22;10.88;;;7.72;;
55835;SDS011;66908;50.988;4.780;2023-02-28T00:42:48;9.73;;;7.32;;
55835;SDS011;66908;50.988;4.780;2023-02-28T00:45:13;11.40;;;7.78;;
55835;SDS011;66908;50.988;4.780;2023-02-28T00:47:39;9.73;;;7.40;;
55835;SDS011;66908;50.988;4.780;2023-02-28T00:50:06;10.60;;;7.70;;
55835;SDS011;66908;50.988;4.780;2023-02-28T00:52:32;11.27;;;7.73;;
55835;SDS011;66908;50.988;4.780;2023-02-28T00:54:59;14.18;;;8.60;;
55835;SDS011;66908;50.988;4.780;2023-02-28T00:57:25;11.07;;;8.02;;
55835;SDS011;66908;50.988;4.780;2023-02-28T00:59:51;8.30;;;7.47;;
55835;SDS011;66908;50.988;4.780;2023-02-28T01:02:19;10.93;;;7.90;;
55835;SDS011;66908;50.988;4.780;2023-02-28T01:04:46;16.67;;;8.57;;
55835;SDS011;66908;50.988;4.780;2023-02-28T01:07:13;12.45;;;8.75;;
55835;SDS011;66908;50.988;4.780;2023-02-28T01:09:39;17.67;;;9.63;;
55835;SDS011;66908;50.988;4.780;2023-02-28T01:12:06;17.40;;;8.93;;
55835;SDS011;66908;50.988;4.780;2023-02-28T01:14:33;14.50;;;8.25;;
55835;SDS011;66908;50.988;4.780;2023-02-28T01:16:59;12.82;;;8.48;;
55835;SDS011;66908;50.988;4.780;2023-02-28T01:19:26;14.35;;;8.43;;
55835;SDS011;66908;50.988;4.780;2023-02-28T01:21:51;11.23;;;8.38;;
55835;SDS011;66908;50.988;4.780;2023-02-28T01:24:17;10.23;;;7.72;;
55835;SDS011;66908;50.988;4.780;2023-02-28T01:26:44;11.32;;;7.78;;
55835;SDS011;66908;50.988;4.780;2023-02-28T01:29:09;13.32;;;8.05;;
55835;SDS011;66908;50.988;4.780;2023-02-28T01:31:35;10.70;;;8.52;;
55835;SDS011;66908;50.988;4.780;2023-02-28T01:34:02;9.65;;;7.80;;
55835;SDS011;66908;50.988;4.780;2023-02-28T01:36:28;10.68;;;8.57;;
55835;SDS011;66908;50.988;4.780;2023-02-28T01:38:54;8.63;;;7.57;;
55835;SDS011;66908;50.988;4.780;2023-02-28T01:41:25;10.77;;;8.50;;
55835;SDS011;66908;50.988;4.780;2023-02-28T01:47:09;11.55;;;8.68;;
55835;SDS011;66908;50.988;4.780;2023-02-28T01:49:35;18.15;;;9.30;;
55835;SDS011;66908;50.988;4.780;2023-02-28T01:52:01;13.23;;;9.85;;
55835;SDS011;66908;50.988;4.780;2023-02-28T01:54:29;17.48;;;10.60;;
55835;SDS011;66908;50.988;4.780;2023-02-28T01:57:00;15.10;;;10.30;;
55835;SDS011;66908;50.988;4.780;2023-02-28T01:59:36;15.55;;;10.13;;
55835;SDS011;66908;50.988;4.780;2023-02-28T02:02:25;15.07;;;8.75;;
55835;SDS011;66908;50.988;4.780;2023-02-28T02:07:26;10.48;;;8.57;;
55835;SDS011;66908;50.988;4.780;2023-02-28T02:10:00;10.63;;;8.70;;
55835;SDS011;66908;50.988;4.780;2023-02-28T02:15:30;16.25;;;9.02;;
55835;SDS011;66908;50.988;4.780;2023-02-28T02:17:56;11.32;;;9.00;;
55835;SDS011;66908;50.988;4.780;2023-02-28T02:25:54;12.75;;;9.07;;
55835;SDS011;66908;50.988;4.780;2023-02-28T02:36:42;15.63;;;9.23;;
55835;SDS011;66908;50.988;4.780;2023-02-28T02:40:16;11.85;;;9.18;;
55835;SDS011;66908;50.988;4.780;2023-02-28T02:42:41;13.50;;;9.60;;
55835;SDS011;66908;50.988;4.780;2023-02-28T02:45:30;12.27;;;8.98;;
55835;SDS011;66908;50.988;4.780;2023-02-28T02:48:11;13.15;;;9.13;;
55835;SDS011;66908;50.988;4.780;2023-02-28T02:50:45;14.27;;;8.57;;
55835;SDS011;66908;50.988;4.780;2023-02-28T02:53:15;14.90;;;8.95;;
55835;SDS011;66908;50.988;4.780;2023-02-28T02:55:47;15.43;;;9.82;;
55835;SDS011;66908;50.988;4.780;2023-02-28T02:58:20;13.63;;;10.18;;
55835;SDS011;66908;50.988;4.780;2023-02-28T03:00:51;14.70;;;9.95;;
55835;SDS011;66908;50.988;4.780;2023-02-28T03:03:21;14.98;;;10.18;;
55835;SDS011;66908;50.988;4.780;2023-02-28T03:05:54;10.98;;;9.15;;
55835;SDS011;66908;50.988;4.780;2023-02-28T03:08:24;15.50;;;9.73;;
55835;SDS011;66908;50.988;4.780;2023-02-28T03:10:51;16.98;;;10.60;;
55835;SDS011;66908;50.988;4.780;2023-02-28T03:13:42;16.17;;;9.68;;
55835;SDS011;66908;50.988;4.780;2023-02-28T03:24:37;14.38;;;9.98;;
55835;SDS011;66908;50.988;4.780;2023-02-28T03:27:27;12.00;;;9.82;;
55835;SDS011;66908;50.988;4.780;2023-02-28T03:32:27;15.50;;;9.80;;
55835;SDS011;66908;50.988;4.780;2023-02-28T03:35:00;15.77;;;10.70;;
55835;SDS011;66908;50.988;4.780;2023-02-28T03:37:37;16.70;;;9.43;;
55835;SDS011;66908;50.988;4.780;2023-02-28T03:40:40;12.60;;;9.48;;
55835;SDS011;66908;50.988;4.780;2023-02-28T03:43:02;15.77;;;9.93;;
55835;SDS011;66908;50.988;4.780;2023-02-28T03:45:35;15.07;;;10.32;;
55835;SDS011;66908;50.988;4.780;2023-02-28T03:48:08;19.27;;;10.27;;
55835;SDS011;66908;50.988;4.780;2023-02-28T03:50:47;16.92;;;10.45;;
55835;SDS011;66908;50.988;4.780;2023-02-28T03:56:07;13.80;;;9.90;;
55835;SDS011;66908;50.988;4.780;2023-02-28T04:01:38;20.60;;;10.60;;
55835;SDS011;66908;50.988;4.780;2023-02-28T04:04:07;17.35;;;9.95;;
55835;SDS011;66908;50.988;4.780;2023-02-28T04:06:34;14.38;;;10.10;;
55835;SDS011;66908;50.988;4.780;2023-02-28T04:09:01;16.70;;;10.10;;
55835;SDS011;66908;50.988;4.780;2023-02-28T04:14:02;13.50;;;9.68;;
55835;SDS011;66908;50.988;4.780;2023-02-28T04:16:29;15.05;;;9.95;;
55835;SDS011;66908;50.988;4.780;2023-02-28T04:18:56;16.10;;;9.70;;
55835;SDS011;66908;50.988;4.780;2023-02-28T04:21:31;15.50;;;9.32;;
55835;SDS011;66908;50.988;4.780;2023-02-28T04:23:58;17.48;;;11.13;;
55835;SDS011;66908;50.988;4.780;2023-02-28T04:26:31;15.63;;;10.18;;
55835;SDS011;66908;50.988;4.780;2023-02-28T04:28:59;17.60;;;10.45;;
55835;SDS011;66908;50.988;4.780;2023-02-28T04:31:26;15.13;;;10.20;;
55835;SDS011;66908;50.988;4.780;2023-02-28T04:33:52;15.80;;;9.60;;
55835;SDS011;66908;50.988;4.780;2023-02-28T04:36:18;13.55;;;10.10;;
55835;SDS011;66908;50.988;4.780;2023-02-28T04:38:44;15.32;;;10.18;;
55835;SDS011;66908;50.988;4.780;2023-02-28T04:41:10;14.40;;;10.05;;
55835;SDS011;66908;50.988;4.780;2023-02-28T04:43:39;15.65;;;10.52;;
55835;SDS011;66908;50.988;4.780;2023-02-28T04:46:05;16.30;;;11.40;;
55835;SDS011;66908;50.988;4.780;2023-02-28T04:48:33;15.43;;;10.65;;
55835;SDS011;66908;50.988;4.780;2023-02-28T04:51:02;16.20;;;10.93;;
55835;SDS011;66908;50.988;4.780;2023-02-28T04:53:34;16.25;;;10.50;;
55835;SDS011;66908;50.988;4.780;2023-02-28T04:56:01;13.85;;;10.85;;
55835;SDS011;66908;50.988;4.780;2023-02-28T04:58:27;14.27;;;10.13;;
55835;SDS011;66908;50.988;4.780;2023-02-28T05:00:53;14.77;;;10.65;;
55835;SDS011;66908;50.988;4.780;2023-02-28T05:03:26;15.02;;;10.45;;
55835;SDS011;66908;50.988;4.780;2023-02-28T05:05:51;18.73;;;10.63;;
55835;SDS011;66908;50.988;4.780;2023-02-28T05:08:17;13.60;;;10.07;;
55835;SDS011;66908;50.988;4.780;2023-02-28T05:10:43;15.85;;;10.52;;
55835;SDS011;66908;50.988;4.780;2023-02-28T05:13:12;17.23;;;10.15;;
55835;SDS011;66908;50.988;4.780;2023-02-28T05:15:38;15.88;;;11.15;;
55835;SDS011;66908;50.988;4.780;2023-02-28T05:18:04;16.58;;;9.82;;
55835;SDS011;66908;50.988;4.780;2023-02-28T05:20:30;15.77;;;10.52;;
55835;SDS011;66908;50.988;4.780;2023-02-28T05:22:56;15.80;;;10.73;;
55835;SDS011;66908;50.988;4.780;2023-02-28T05:25:23;19.05;;;10.95;;
55835;SDS011;66908;50.988;4.780;2023-02-28T05:27:49;18.80;;;10.60;;
55835;SDS011;66908;50.988;4.780;2023-02-28T05:30:15;18.73;;;11.32;;
55835;SDS011;66908;50.988;4.780;2023-02-28T05:32:42;15.23;;;9.60;;
55835;SDS011;66908;50.988;4.780;2023-02-28T05:35:08;14.23;;;10.10;;
55835;SDS011;66908;50.988;4.780;2023-02-28T05:37:37;16.50;;;10.52;;
55835;SDS011;66908;50.988;4.780;2023-02-28T05:40:04;16.73;;;9.38;;
55835;SDS011;66908;50.988;4.780;2023-02-28T05:42:32;14.82;;;10.15;;
55835;SDS011;66908;50.988;4.780;2023-02-28T05:44:58;13.93;;;9.13;;
55835;SDS011;66908;50.988;4.780;2023-02-28T05:47:24;16.13;;;9.48;;
55835;SDS011;66908;50.988;4.780;2023-02-28T05:49:49;13.77;;;9.18;;
55835;SDS011;66908;50.988;4.780;2023-02-28T05:52:15;16.17;;;10.07;;
55835;SDS011;66908;50.988;4.780;2023-02-28T05:54:41;17.48;;;10.20;;
55835;SDS011;66908;50.988;4.780;2023-02-28T05:57:07;13.35;;;9.60;;
55835;SDS011;66908;50.988;4.780;2023-02-28T05:59:33;16.38;;;10.65;;
55835;SDS011;66908;50.988;4.780;2023-02-28T06:01:59;14.85;;;9.98;;
55835;SDS011;66908;50.988;4.780;2023-02-28T06:04:25;14.52;;;10.57;;
55835;SDS011;66908;50.988;4.780;2023-02-28T06:06:51;12.90;;;9.60;;
55835;SDS011;66908;50.988;4.780;2023-02-28T06:09:17;15.45;;;9.60;;
55835;SDS011;66908;50.988;4.780;2023-02-28T06:11:44;13.90;;;9.50;;
55835;SDS011;66908;50.988;4.780;2023-02-28T06:14:14;14.68;;;10.13;;
55835;SDS011;66908;50.988;4.780;2023-02-28T06:16:41;23.80;;;13.57;;
55835;SDS011;66908;50.988;4.780;2023-02-28T06:19:08;14.43;;;9.10;;
55835;SDS011;66908;50.988;4.780;2023-02-28T06:21:35;13.43;;;9.30;;
55835;SDS011;66908;50.988;4.780;2023-02-28T06:24:01;11.98;;;9.63;;
55835;SDS011;66908;50.988;4.780;2023-02-28T06:26:27;13.25;;;9.73;;
55835;SDS011;66908;50.988;4.780;2023-02-28T06:28:54;14.10;;;9.93;;
55835;SDS011;66908;50.988;4.780;2023-02-28T06:31:19;15.07;;;10.95;;
55835;SDS011;66908;50.988;4.780;2023-02-28T06:33:51;15.85;;;10.55;;
55835;SDS011;66908;50.988;4.780;2023-02-28T06:36:17;13.55;;;9.43;;
55835;SDS011;66908;50.988;4.780;2023-02-28T06:38:43;16.30;;;10.75;;
55835;SDS011;66908;50.988;4.780;2023-02-28T06:41:09;16.35;;;10.65;;
55835;SDS011;66908;50.988;4.780;2023-02-28T06:43:38;18.55;;;10.15;;
55835;SDS011;66908;50.988;4.780;2023-02-28T06:46:06;13.27;;;9.80;;
55835;SDS011;66908;50.988;4.780;2023-02-28T06:48:35;14.75;;;9.50;;
55835;SDS011;66908;50.988;4.780;2023-02-28T06:51:02;17.70;;;11.15;;
55835;SDS011;66908;50.988;4.780;2023-02-28T06:53:30;14.75;;;9.95;;
55835;SDS011;66908;50.988;4.780;2023-02-28T06:55:56;17.02;;;11.65;;
55835;SDS011;66908;50.988;4.780;2023-02-28T06:58:22;15.23;;;9.80;;
55835;SDS011;66908;50.988;4.780;2023-02-28T07:00:50;15.55;;;9.93;;
55835;SDS011;66908;50.988;4.780;2023-02-28T07:03:17;13.23;;;9.98;;
55835;SDS011;66908;50.988;4.780;2023-02-28T07:05:44;16.58;;;9.70;;
55835;SDS011;66908;50.988;4.780;2023-02-28T07:08:10;15.15;;;10.63;;
55835;SDS011;66908;50.988;4.780;2023-02-28T07:10:37;19.02;;;9.77;;
55835;SDS011;66908;50.988;4.780;2023-02-28T07:13:03;14.20;;;8.35;;
55835;SDS011;66908;50.988;4.780;2023-02-28T07:15:30;18.05;;;10.75;;
55835;SDS011;66908;50.988;4.780;2023-02-28T07:17:56;14.82;;;9.75;;
55835;SDS011;66908;50.988;4.780;2023-02-28T07:20:22;16.38;;;10.48;;
55835;SDS011;66908;50.988;4.780;2023-02-28T07:22:49;23.55;;;11.00;;
55835;SDS011;66908;50.988;4.780;2023-02-28T07:25:24;19.67;;;9.85;;
55835;SDS011;66908;50.988;4.780;2023-02-28T07:27:51;12.93;;;9.50;;
55835;SDS011;66908;50.988;4.780;2023-02-28T07:30:18;12.38;;;8.77;;
55835;SDS011;66908;50.988;4.780;2023-02-28T07:32:44;21.05;;;9.43;;
55835;SDS011;66908;50.988;4.780;2023-02-28T07:35:11;13.93;;;9.73;;
55835;SDS011;66908;50.988;4.780;2023-02-28T07:37:37;16.48;;;9.25;;
55835;SDS011;66908;50.988;4.780;2023-02-28T07:40:04;13.73;;;9.10;;
55835;SDS011;66908;50.988;4.780;2023-02-28T07:42:36;13.77;;;9.93;;
55835;SDS011;66908;50.988;4.780;2023-02-28T07:45:03;24.27;;;13.32;;
55835;SDS011;66908;50.988;4.780;2023-02-28T07:47:30;13.07;;;8.57;;
55835;SDS011;66908;50.988;4.780;2023-02-28T07:49:57;12.10;;;7.75;;
55835;SDS011;66908;50.988;4.780;2023-02-28T07:52:23;8.95;;;7.60;;
55835;SDS011;66908;50.988;4.780;2023-02-28T07:54:49;11.77;;;7.60;;
55835;SDS011;66908;50.988;4.780;2023-02-28T07:57:16;14.85;;;7.78;;
55835;SDS011;66908;50.988;4.780;2023-02-28T07:59:42;7.43;;;6.72;;
55835;SDS011;66908;50.988;4.780;2023-02-28T08:02:15;10.27;;;6.50;;
55835;SDS011;66908;50.988;4.780;2023-02-28T08:04:42;8.05;;;7.18;;
55835;SDS011;66908;50.988;4.780;2023-02-28T08:07:08;7.32;;;6.43;;
55835;SDS011;66908;50.988;4.780;2023-02-28T08:09:38;8.82;;;6.65;;
55835;SDS011;66908;50.988;4.780;2023-02-28T08:12:05;7.97;;;6.43;;
55835;SDS011;66908;50.988;4.780;2023-02-28T08:14:32;8.35;;;6.28;;
55835;SDS011;66908;50.988;4.780;2023-02-28T08:16:58;9.13;;;6.50;;
55835;SDS011;66908;50.988;4.780;2023-02-28T08:19:24;6.82;;;6.13;;
55835;SDS011;66908;50.988;4.780;2023-02-28T08:21:51;9.88;;;6.32;;
55835;SDS011;66908;50.988;4.780;2023-02-28T08:24:17;9.93;;;5.90;;
55835;SDS011;66908;50.988;4.780;2023-02-28T08:26:43;9.32;;;6.40;;
55835;SDS011;66908;50.988;4.780;2023-02-28T08:29:09;6.53;;;5.82;;
55835;SDS011;66908;50.988;4.780;2023-02-28T08:31:35;8.77;;;5.22;;
55835;SDS011;66908;50.988;4.780;2023-02-28T08:34:11;6.93;;;5.50;;
55835;SDS011;66908;50.988;4.780;2023-02-28T08:36:38;5.82;;;5.07;;
55835;SDS011;66908;50.988;4.780;2023-02-28T08:39:05;6.97;;;6.35;;
55835;SDS011;66908;50.988;4.780;2023-02-28T08:41:31;6.97;;;5.85;;
55835;SDS011;66908;50.988;4.780;2023-02-28T08:43:57;6.22;;;5.63;;
55835;SDS011;66908;50.988;4.780;2023-02-28T08:46:24;19.27;;;10.80;;
55835;SDS011;66908;50.988;4.780;2023-02-28T08:48:53;5.40;;;5.00;;
55835;SDS011;66908;50.988;4.780;2023-02-28T08:51:20;6.18;;;5.50;;
55835;SDS011;66908;50.988;4.780;2023-02-28T08:53:54;6.32;;;5.43;;
55835;SDS011;66908;50.988;4.780;2023-02-28T08:56:24;6.32;;;5.25;;
55835;SDS011;66908;50.988;4.780;2023-02-28T08:58:51;5.50;;;5.00;;
55835;SDS011;66908;50.988;4.780;2023-02-28T09:01:24;9.38;;;5.47;;
55835;SDS011;66908;50.988;4.780;2023-02-28T09:03:52;6.45;;;4.65;;
55835;SDS011;66908;50.988;4.780;2023-02-28T09:06:20;6.35;;;4.50;;
55835;SDS011;66908;50.988;4.780;2023-02-28T09:08:48;5.68;;;4.55;;
55835;SDS011;66908;50.988;4.780;2023-02-28T09:11:14;6.72;;;4.68;;
55835;SDS011;66908;50.988;4.780;2023-02-28T09:13:40;4.97;;;4.47;;
55835;SDS011;66908;50.988;4.780;2023-02-28T09:16:07;5.68;;;4.80;;
55835;SDS011;66908;50.988;4.780;2023-02-28T09:18:36;4.95;;;4.45;;
55835;SDS011;66908;50.988;4.780;2023-02-28T09:21:06;6.63;;;4.28;;
55835;SDS011;66908;50.988;4.780;2023-02-28T09:23:34;6.43;;;4.65;;
55835;SDS011;66908;50.988;4.780;2023-02-28T09:26:03;6.03;;;4.85;;
55835;SDS011;66908;50.988;4.780;2023-02-28T09:28:30;5.53;;;5.00;;
55835;SDS011;66908;50.988;4.780;2023-02-28T09:30:56;4.82;;;4.30;;
55835;SDS011;66908;50.988;4.780;2023-02-28T09:33:25;4.53;;;4.13;;
55835;SDS011;66908;50.988;4.780;2023-02-28T09:35:57;4.88;;;4.25;;
55835;SDS011;66908;50.988;4.780;2023-02-28T09:38:25;5.95;;;4.38;;
55835;SDS011;66908;50.988;4.780;2023-02-28T09:40:55;5.35;;;4.30;;
55835;SDS011;66908;50.988;4.780;2023-02-28T09:43:28;4.70;;;4.25;;
55835;SDS011;66908;50.988;4.780;2023-02-28T09:48:48;4.25;;;3.85;;
55835;SDS011;66908;50.988;4.780;2023-02-28T09:51:23;4.47;;;3.95;;
55835;SDS011;66908;50.988;4.780;2023-02-28T09:53:57;3.67;;;3.38;;
55835;SDS011;66908;50.988;4.780;2023-02-28T09:56:25;5.97;;;4.63;;
55835;SDS011;66908;50.988;4.780;2023-02-28T09:58:57;3.80;;;3.45;;
55835;SDS011;66908;50.988;4.780;2023-02-28T10:09:58;4.10;;;3.75;;
55835;SDS011;66908;50.988;4.780;2023-02-28T10:12:27;4.10;;;3.78;;
55835;SDS011;66908;50.988;4.780;2023-02-28T10:14:55;3.90;;;3.60;;
55835;SDS011;66908;50.988;4.780;2023-02-28T10:17:25;4.38;;;3.97;;
55835;SDS011;66908;50.988;4.780;2023-02-28T10:20:11;4.47;;;3.40;;
55835;SDS011;66908;50.988;4.780;2023-02-28T10:22:56;2.55;;;2.38;;
55835;SDS011;66908;50.988;4.780;2023-02-28T10:25:33;5.90;;;3.20;;
55835;SDS011;66908;50.988;4.780;2023-02-28T10:28:21;2.80;;;2.70;;
55835;SDS011;66908;50.988;4.780;2023-02-28T10:30:51;3.83;;;3.45;;
55835;SDS011;66908;50.988;4.780;2023-02-28T10:33:27;2.90;;;2.70;;
55835;SDS011;66908;50.988;4.780;2023-02-28T10:35:57;4.03;;;3.20;;
55835;SDS011;66908;50.988;4.780;2023-02-28T10:38:28;3.10;;;2.90;;
55835;SDS011;66908;50.988;4.780;2023-02-28T10:41:26;3.28;;;3.05;;
55835;SDS011;66908;50.988;4.780;2023-02-28T10:46:46;4.00;;;3.53;;
55835;SDS011;66908;50.988;4.780;2023-02-28T10:49:17;5.40;;;3.42;;
55835;SDS011;66908;50.988;4.780;2023-02-28T10:51:51;4.68;;;3.20;;
55835;SDS011;66908;50.988;4.780;2023-02-28T10:54:37;3.67;;;3.38;;
55835;SDS011;66908;50.988;4.780;2023-02-28T11:00:05;4.50;;;3.40;;
55835;SDS011;66908;50.988;4.780;2023-02-28T11:02:39;3.45;;;3.25;;
55835;SDS011;66908;50.988;4.780;2023-02-28T11:07:56;3.58;;;3.28;;
55835;SDS011;66908;50.988;4.780;2023-02-28T11:10:29;3.97;;;3.60;;
55835;SDS011;66908;50.988;4.780;2023-02-28T11:12:59;3.42;;;3.13;;
55835;SDS011;66908;50.988;4.780;2023-02-28T11:15:33;3.50;;;3.20;;
55835;SDS011;66908;50.988;4.780;2023-02-28T11:18:01;3.45;;;3.10;;
55835;SDS011;66908;50.988;4.780;2023-02-28T11:20:37;3.90;;;3.60;;
55835;SDS011;66908;50.988;4.780;2023-02-28T11:23:05;3.38;;;3.15;;
55835;SDS011;66908;50.988;4.780;2023-02-28T11:25:38;3.50;;;3.22;;
55835;SDS011;66908;50.988;4.780;2023-02-28T11:28:05;3.42;;;3.15;;
55835;SDS011;66908;50.988;4.780;2023-02-28T11:31:03;3.97;;;3.55;;
55835;SDS011;66908;50.988;4.780;2023-02-28T11:41:20;3.97;;;3.53;;
55835;SDS011;66908;50.988;4.780;2023-02-28T11:46:54;3.95;;;3.65;;
55835;SDS011;66908;50.988;4.780;2023-02-28T11:54:59;3.63;;;3.33;;
55835;SDS011;66908;50.988;4.780;2023-02-28T12:11:57;3.90;;;3.60;;
55835;SDS011;66908;50.988;4.780;2023-02-28T12:14:46;4.00;;;3.55;;
55835;SDS011;66908;50.988;4.780;2023-02-28T12:28:14;4.40;;;3.78;;
55835;SDS011;66908;50.988;4.780;2023-02-28T12:30:49;6.75;;;4.07;;
55835;SDS011;66908;50.988;4.780;2023-02-28T12:33:22;4.03;;;3.53;;
55835;SDS011;66908;50.988;4.780;2023-02-28T12:35:53;4.07;;;3.67;;
55835;SDS011;66908;50.988;4.780;2023-02-28T12:38:40;3.95;;;3.65;;
55835;SDS011;66908;50.988;4.780;2023-02-28T12:41:45;5.22;;;3.20;;
55835;SDS011;66908;50.988;4.780;2023-02-28T12:44:15;3.28;;;3.08;;
55835;SDS011;66908;50.988;4.780;2023-02-28T12:46:54;3.60;;;3.30;;
55835;SDS011;66908;50.988;4.780;2023-02-28T12:49:25;3.83;;;3.53;;
55835;SDS011;66908;50.988;4.780;2023-02-28T12:51:56;4.28;;;3.35;;
55835;SDS011;66908;50.988;4.780;2023-02-28T12:54:28;4.97;;;3.25;;
55835;SDS011;66908;50.988;4.780;2023-02-28T13:00:23;3.40;;;3.20;;
55835;SDS011;66908;50.988;4.780;2023-02-28T13:06:02;3.65;;;3.38;;
55835;SDS011;66908;50.988;4.780;2023-02-28T13:11:39;3.67;;;3.38;;
55835;SDS011;66908;50.988;4.780;2023-02-28T13:22:19;4.10;;;3.80;;
55835;SDS011;66908;50.988;4.780;2023-02-28T13:24:57;4.15;;;3.75;;
55835;SDS011;66908;50.988;4.780;2023-02-28T13:27:24;3.85;;;3.47;;
55835;SDS011;66908;50.988;4.780;2023-02-28T13:29:58;5.90;;;3.38;;
55835;SDS011;66908;50.988;4.780;2023-02-28T13:45:22;4.53;;;3.42;;
55835;SDS011;66908;50.988;4.780;2023-02-28T13:47:53;4.47;;;3.60;;
55835;SDS011;66908;50.988;4.780;2023-02-28T13:50:30;4.20;;;3.80;;
55835;SDS011;66908;50.988;4.780;2023-02-28T14:07:05;4.35;;;4.00;;
55835;SDS011;66908;50.988;4.780;2023-02-28T14:09:37;4.15;;;3.70;;
55835;SDS011;66908;50.988;4.780;2023-02-28T14:15:28;4.45;;;3.72;;
55835;SDS011;66908;50.988;4.780;2023-02-28T14:18:05;4.07;;;3.55;;
55835;SDS011;66908;50.988;4.780;2023-02-28T14:20:40;8.18;;;3.72;;
55835;SDS011;66908;50.988;4.780;2023-02-28T14:31:31;5.22;;;4.45;;
55835;SDS011;66908;50.988;4.780;2023-02-28T14:36:51;4.57;;;4.18;;
55835;SDS011;66908;50.988;4.780;2023-02-28T14:39:22;4.32;;;4.00;;
55835;SDS011;66908;50.988;4.780;2023-02-28T14:41:51;4.40;;;4.03;;
55835;SDS011;66908;50.988;4.780;2023-02-28T14:44:21;5.50;;;4.00;;
55835;SDS011;66908;50.988;4.780;2023-02-28T14:46:55;4.38;;;4.07;;
55835;SDS011;66908;50.988;4.780;2023-02-28T14:49:26;3.80;;;3.50;;
55835;SDS011;66908;50.988;4.780;2023-02-28T14:54:40;6.95;;;3.70;;
55835;SDS011;66908;50.988;4.780;2023-02-28T14:57:18;4.75;;;4.30;;
55835;SDS011;66908;50.988;4.780;2023-02-28T15:02:37;4.68;;;3.70;;
55835;SDS011;66908;50.988;4.780;2023-02-28T15:07:42;7.93;;;4.30;;
55835;SDS011;66908;50.988;4.780;2023-02-28T15:10:15;4.15;;;3.85;;
55835;SDS011;66908;50.988;4.780;2023-02-28T15:12:47;6.68;;;4.03;;
55835;SDS011;66908;50.988;4.780;2023-02-28T15:15:19;4.18;;;3.78;;
55835;SDS011;66908;50.988;4.780;2023-02-28T15:17:50;5.07;;;3.83;;
55835;SDS011;66908;50.988;4.780;2023-02-28T15:20:21;4.50;;;3.75;;
55835;SDS011;66908;50.988;4.780;2023-02-28T15:22:49;4.80;;;4.40;;
55835;SDS011;66908;50.988;4.780;2023-02-28T15:25:18;3.67;;;3.40;;
55835;SDS011;66908;50.988;4.780;2023-02-28T15:27:51;4.30;;;4.00;;
55835;SDS011;66908;50.988;4.780;2023-02-28T15:30:21;4.57;;;4.18;;
55835;SDS011;66908;50.988;4.780;2023-02-28T15:33:29;4.20;;;3.80;;
55835;SDS011;66908;50.988;4.780;2023-02-28T15:35:50;4.38;;;3.97;;
55835;SDS011;66908;50.988;4.780;2023-02-28T15:38:18;4.18;;;3.78;;
55835;SDS011;66908;50.988;4.780;2023-02-28T15:40:52;4.32;;;3.80;;
55835;SDS011;66908;50.988;4.780;2023-02-28T15:45:49;5.20;;;4.57;;
55835;SDS011;66908;50.988;4.780;2023-02-28T15:48:21;5.45;;;4.63;;
55835;SDS011;66908;50.988;4.780;2023-02-28T15:50:51;4.47;;;4.15;;
55835;SDS011;66908;50.988;4.780;2023-02-28T15:53:21;6.80;;;3.88;;
55835;SDS011;66908;50.988;4.780;2023-02-28T15:55:57;4.70;;;4.30;;
55835;SDS011;66908;50.988;4.780;2023-02-28T15:58:29;4.85;;;3.67;;
55835;SDS011;66908;50.988;4.780;2023-02-28T16:01:04;4.78;;;4.35;;
55835;SDS011;66908;50.988;4.780;2023-02-28T16:03:48;4.45;;;3.78;;
55835;SDS011;66908;50.988;4.780;2023-02-28T16:09:13;4.65;;;3.92;;
55835;SDS011;66908;50.988;4.780;2023-02-28T16:11:42;7.97;;;5.70;;
55835;SDS011;66908;50.988;4.780;2023-02-28T16:14:14;5.22;;;4.30;;
55835;SDS011;66908;50.988;4.780;2023-02-28T16:16:48;5.50;;;4.00;;
55835;SDS011;66908;50.988;4.780;2023-02-28T16:19:16;6.07;;;4.03;;
55835;SDS011;66908;50.988;4.780;2023-02-28T16:21:43;4.60;;;4.20;;
55835;SDS011;66908;50.988;4.780;2023-02-28T16:24:09;8.95;;;4.65;;
55835;SDS011;66908;50.988;4.780;2023-02-28T16:26:35;5.80;;;4.32;;
55835;SDS011;66908;50.988;4.780;2023-02-28T16:29:04;4.50;;;4.20;;
55835;SDS011;66908;50.988;4.780;2023-02-28T16:31:32;4.97;;;4.57;;
55835;SDS011;66908;50.988;4.780;2023-02-28T16:34:01;4.70;;;4.30;;
55835;SDS011;66908;50.988;4.780;2023-02-28T16:36:28;5.50;;;4.40;;
55835;SDS011;66908;50.988;4.780;2023-02-28T16:38:54;4.88;;;4.22;;
55835;SDS011;66908;50.988;4.780;2023-02-28T16:41:22;5.28;;;4.78;;
55835;SDS011;66908;50.988;4.780;2023-02-28T16:43:51;5.85;;;4.40;;
55835;SDS011;66908;50.988;4.780;2023-02-28T16:46:18;4.85;;;4.35;;
55835;SDS011;66908;50.988;4.780;2023-02-28T16:48:45;5.53;;;4.60;;
55835;SDS011;66908;50.988;4.780;2023-02-28T16:51:14;4.72;;;4.13;;
55835;SDS011;66908;50.988;4.780;2023-02-28T16:53:41;4.95;;;4.50;;
55835;SDS011;66908;50.988;4.780;2023-02-28T16:56:11;4.50;;;4.10;;
55835;SDS011;66908;50.988;4.780;2023-02-28T16:58:50;16.38;;;8.27;;
55835;SDS011;66908;50.988;4.780;2023-02-28T17:01:17;6.13;;;5.33;;
55835;SDS011;66908;50.988;4.780;2023-02-28T17:03:46;6.22;;;5.25;;
55835;SDS011;66908;50.988;4.780;2023-02-28T17:06:20;8.90;;;5.40;;
55835;SDS011;66908;50.988;4.780;2023-02-28T17:08:51;5.93;;;5.28;;
55835;SDS011;66908;50.988;4.780;2023-02-28T17:11:17;6.40;;;4.68;;
55835;SDS011;66908;50.988;4.780;2023-02-28T17:13:44;5.53;;;4.97;;
55835;SDS011;66908;50.988;4.780;2023-02-28T17:16:19;8.90;;;4.82;;
55835;SDS011;66908;50.988;4.780;2023-02-28T17:18:59;5.72;;;4.85;;
55835;SDS011;66908;50.988;4.780;2023-02-28T17:21:27;6.75;;;4.57;;
55835;SDS011;66908;50.988;4.780;2023-02-28T17:23:54;6.63;;;4.72;;
55835;SDS011;66908;50.988;4.780;2023-02-28T17:26:21;6.32;;;4.90;;
55835;SDS011;66908;50.988;4.780;2023-02-28T17:28:50;5.75;;;5.25;;
55835;SDS011;66908;50.988;4.780;2023-02-28T17:31:16;5.35;;;4.88;;
55835;SDS011;66908;50.988;4.780;2023-02-28T17:33:42;8.73;;;5.85;;
55835;SDS011;66908;50.988;4.780;2023-02-28T17:36:16;7.70;;;4.72;;
55835;SDS011;66908;50.988;4.780;2023-02-28T17:38:47;5.63;;;5.03;;
55835;SDS011;66908;50.988;4.780;2023-02-28T17:41:13;6.07;;;4.78;;
55835;SDS011;66908;50.988;4.780;2023-02-28T17:43:39;8.52;;;5.53;;
55835;SDS011;66908;50.988;4.780;2023-02-28T17:46:06;5.68;;;4.97;;
55835;SDS011;66908;50.988;4.780;2023-02-28T17:48:51;6.30;;;4.80;;
55835;SDS011;66908;50.988;4.780;2023-02-28T17:51:18;6.65;;;4.55;;
55835;SDS011;66908;50.988;4.780;2023-02-28T17:53:46;5.70;;;4.85;;